createdAt,value
2022-10-24T00:01:52.681Z,15.30
2022-10-24T00:04:22.130Z,15.30
2022-10-24T00:06:50.031Z,15.20
2022-10-24T00:09:18.012Z,15.20
2022-10-24T00:11:46.029Z,15.20
2022-10-24T00:14:13.925Z,15.20
2022-10-24T00:16:42.075Z,15.20
2022-10-24T00:19:10.258Z,15.20
2022-10-24T00:21:39.717Z,15.20
2022-10-24T00:24:08.468Z,15.10
2022-10-24T00:26:36.602Z,15.20
2022-10-24T00:29:04.959Z,15.10
2022-10-24T00:31:33.114Z,15.10
2022-10-24T00:34:01.783Z,15.10
2022-10-24T00:36:30.061Z,15.10
2022-10-24T00:38:59.775Z,15.10
2022-10-24T00:41:29.512Z,15.20
2022-10-24T00:44:14.161Z,15.10
2022-10-24T00:46:42.757Z,15.10
2022-10-24T00:49:13.860Z,15.00
2022-10-24T00:51:42.208Z,15.00
2022-10-24T00:54:16.595Z,15.00
2022-10-24T00:56:46.668Z,15.00
2022-10-24T00:59:15.601Z,15.00
2022-10-24T01:01:44.826Z,14.90
2022-10-24T01:04:13.972Z,15.00
2022-10-24T01:23:28.802Z,15.00
2022-10-24T01:26:05.532Z,15.00
2022-10-24T01:28:38.799Z,15.00
2022-10-24T01:31:11.424Z,15.00
2022-10-24T01:33:41.092Z,15.10
2022-10-24T01:36:10.716Z,15.20
2022-10-24T01:38:42.490Z,15.30
2022-10-24T01:41:12.487Z,15.30
2022-10-24T01:43:42.882Z,15.40
2022-10-24T01:46:14.401Z,15.40
2022-10-24T01:48:45.401Z,15.40
2022-10-24T01:54:01.810Z,15.50
2022-10-24T01:56:30.090Z,15.50
2022-10-24T01:59:05.438Z,15.50
2022-10-24T02:01:36.197Z,15.50
2022-10-24T02:04:08.069Z,15.60
2022-10-24T02:06:38.565Z,15.50
2022-10-24T02:09:09.091Z,15.60
2022-10-24T02:11:37.137Z,15.60
2022-10-24T02:14:06.654Z,15.60
2022-10-24T02:16:36.214Z,15.70
2022-10-24T02:19:04.120Z,15.80
2022-10-24T02:21:33.985Z,15.80
2022-10-24T02:24:03.358Z,15.70
2022-10-24T02:26:33.313Z,15.70
2022-10-24T02:29:03.673Z,15.70
2022-10-24T02:31:34.189Z,15.70
2022-10-24T02:34:04.892Z,15.80
2022-10-24T02:36:33.800Z,15.70
2022-10-24T02:39:02.865Z,15.80
2022-10-24T02:41:33.411Z,15.70
2022-10-24T02:44:02.517Z,15.70
2022-10-24T02:46:30.964Z,15.80
2022-10-24T02:49:00.338Z,15.90
2022-10-24T02:51:32.650Z,16.00
2022-10-24T02:54:01.406Z,16.00
2022-10-24T03:37:56.458Z,16.00
2022-10-24T03:40:24.403Z,16.00
2022-10-24T03:42:52.316Z,16.00
2022-10-24T03:45:20.400Z,16.00
2022-10-24T03:47:48.353Z,16.00
2022-10-24T03:50:16.258Z,16.10
2022-10-24T03:52:44.525Z,16.10
2022-10-24T03:55:13.979Z,16.10
2022-10-24T03:57:42.402Z,16.10
2022-10-24T04:00:11.181Z,16.00
2022-10-24T04:02:41.631Z,16.10
2022-10-24T04:05:11.997Z,16.10
2022-10-24T04:37:16.401Z,15.90
2022-10-24T04:39:44.426Z,15.90
2022-10-24T04:42:12.266Z,16.00
2022-10-24T04:44:40.293Z,16.00
2022-10-24T04:47:08.294Z,16.00
2022-10-24T04:49:36.308Z,16.10
2022-10-24T04:52:04.607Z,16.10
2022-10-24T04:54:33.867Z,16.10
2022-10-24T04:57:01.803Z,16.10
2022-10-24T04:59:29.876Z,16.20
2022-10-24T05:27:06.415Z,16.10
2022-10-24T05:29:34.398Z,16.20
2022-10-24T05:32:02.387Z,16.20
2022-10-24T05:34:30.594Z,16.20
2022-10-24T05:36:58.488Z,16.20
2022-10-24T05:39:26.380Z,16.30
2022-10-24T05:41:55.419Z,16.40
2022-10-24T05:44:25.018Z,16.30
2022-10-24T05:46:52.952Z,16.30
2022-10-24T05:49:21.282Z,16.30
2022-10-24T05:51:49.289Z,16.40
2022-10-24T05:54:17.347Z,16.30
2022-10-24T06:46:46.340Z,15.80
2022-10-24T06:49:14.963Z,15.80
2022-10-24T10:09:01.482Z,17.60
2022-10-24T10:11:31.572Z,17.70
2022-10-24T10:14:02.304Z,17.70
2022-10-24T10:16:31.076Z,17.70
2022-10-24T10:19:03.318Z,17.70
2022-10-24T10:21:51.395Z,17.60
2022-10-24T10:24:27.059Z,17.60
2022-10-24T10:26:55.148Z,17.60
2022-10-24T10:29:24.290Z,17.60
2022-10-24T10:31:54.259Z,17.60
2022-10-24T10:34:27.050Z,17.50
2022-10-24T10:37:12.782Z,17.50
2022-10-24T10:39:49.990Z,17.50
2022-10-24T10:42:22.015Z,17.20
2022-10-24T10:44:56.903Z,17.00
2022-10-24T10:47:36.041Z,16.70
2022-10-24T11:22:47.716Z,16.60
2022-10-24T11:25:21.018Z,16.80
2022-10-24T11:27:52.336Z,17.00
2022-10-24T11:30:32.673Z,17.10
2022-10-24T11:33:02.238Z,17.20
2022-10-24T11:35:31.286Z,17.20
2022-10-24T11:38:03.488Z,17.30
2022-10-24T11:40:32.296Z,17.30
2022-10-24T11:43:06.747Z,17.40
2022-10-24T11:45:40.412Z,17.40
2022-10-24T11:48:13.732Z,17.40
2022-10-24T11:50:47.337Z,17.40
2022-10-24T11:53:21.672Z,17.50
2022-10-24T11:55:53.606Z,17.60
2022-10-24T11:58:23.427Z,17.70
2022-10-24T12:01:07.647Z,17.80
2022-10-24T12:04:02.342Z,17.80
2022-10-24T12:06:41.154Z,17.90
2022-10-24T12:09:28.530Z,17.90
2022-10-24T12:12:12.701Z,17.80
2022-10-24T12:15:02.897Z,17.80
2022-10-24T12:17:39.312Z,17.80
2022-10-24T12:20:08.442Z,17.90
2022-10-24T12:22:38.394Z,17.90
2022-10-24T12:25:10.077Z,17.90
2022-10-24T12:27:39.056Z,17.90
2022-10-24T12:30:17.388Z,17.90
2022-10-24T12:32:46.905Z,17.90
2022-10-24T13:59:32.536Z,17.30
2022-10-24T14:02:02.968Z,17.30
2022-10-24T14:04:31.731Z,17.40
2022-10-24T14:07:03.784Z,17.50
2022-10-24T14:09:32.226Z,17.50
2022-10-24T14:12:00.298Z,17.50
2022-10-24T14:14:29.632Z,17.50
2022-10-24T14:17:23.015Z,17.60
2022-10-24T14:19:55.207Z,17.60
2022-10-24T14:22:25.285Z,17.60
2022-10-24T14:24:53.598Z,17.60
2022-10-24T14:27:22.077Z,17.60
2022-10-24T14:29:54.263Z,17.60
2022-10-24T14:32:23.698Z,17.60
2022-10-24T14:34:52.089Z,17.50
2022-10-24T14:37:27.330Z,17.50
2022-10-24T14:39:56.284Z,17.40
2022-10-24T14:42:25.526Z,17.40
2022-10-24T14:44:58.454Z,17.30
2022-10-24T14:47:29.906Z,17.30
2022-10-24T14:49:58.850Z,17.30
2022-10-24T14:52:28.595Z,17.40
2022-10-24T14:55:00.521Z,17.40
2022-10-24T14:57:29.828Z,17.30
2022-10-24T14:59:59.862Z,17.30
2022-10-24T15:02:30.808Z,17.40
2022-10-24T15:05:13.933Z,17.40
2022-10-24T15:07:52.369Z,17.40
2022-10-24T15:18:31.719Z,17.70
2022-10-24T15:21:02.396Z,17.60
2022-10-24T15:23:32.776Z,17.60
2022-10-24T16:37:38.518Z,15.70
2022-10-24T16:40:06.807Z,15.60
2022-10-24T16:42:34.837Z,15.50
2022-10-24T16:45:03.817Z,15.40
2022-10-24T16:47:32.027Z,15.30
2022-10-24T16:50:00.656Z,15.20
2022-10-24T16:52:29.449Z,15.10
2022-10-24T18:10:41.206Z,14.30
2022-10-24T18:46:35.592Z,14.80
2022-10-24T18:49:03.645Z,14.80
2022-10-24T18:51:33.457Z,14.70
2022-10-24T18:54:04.474Z,14.70
2022-10-24T18:56:32.813Z,14.70
2022-10-24T18:59:00.833Z,14.60
2022-10-24T19:01:35.321Z,14.60
2022-10-24T19:32:46.060Z,14.30
2022-10-24T20:54:53.123Z,13.90
2022-10-24T20:57:21.339Z,13.80
2022-10-24T20:59:50.005Z,13.80
2022-10-24T21:02:18.662Z,13.80
2022-10-24T21:04:46.987Z,13.80
2022-10-24T21:07:15.375Z,13.70
2022-10-24T21:09:46.315Z,13.70
2022-10-24T21:12:15.739Z,13.70
2022-10-24T21:14:44.088Z,13.70
2022-10-24T21:17:12.844Z,13.70
2022-10-24T21:19:41.036Z,13.70
2022-10-24T21:22:09.711Z,13.70
